Time,TemperatureF,DewpointF,PressureIn,WindDirection,WindDirectionDegrees,WindSpeedMPH,WindSpeedGustMPH,Humidity,HourlyPrecipIn,Conditions,Clouds,dailyrainin,SoftwareType,DateUTC
2013-09-07 00:00:00,54.2,54.2,30.11,South,172,2.0,2.0,100,0.00,,---,0.00,VWS V14.01,2013-09-07 07:00:00,
2013-09-07 00:05:00,53.9,53.9,30.11,South,172,1.0,2.0,100,0.00,,---,0.00,VWS V14.01,2013-09-07 07:05:00,
2013-09-07 00:10:00,53.9,53.9,30.11,South,172,2.0,2.0,100,0.00,,---,0.00,VWS V14.01,2013-09-07 07:10:00,
2013-09-07 00:15:00,53.9,53.9,30.11,South,172,2.0,3.0,100,0.00,,---,0.00,VWS V14.01,2013-09-07 07:15:00,
2013-09-07 00:20:00,53.7,53.7,30.11,South,172,1.0,3.0,100,0.00,,---,0.00,VWS V14.01,2013-09-07 07:20:00,
2013-09-07 00:25:00,53.4,53.4,30.10,South,172,3.0,3.0,100,0.00,,---,0.00,VWS V14.01,2013-09-07 07:25:00,
2013-09-07 00:30:00,55.2,55.2,30.12,South,172,2.0,2.0,100,0.00,,---,1.53,VWS V15.00,2013-09-07 07:30:00,
2013-09-07 00:31:00,53.4,53.4,30.10,South,172,3.0,4.0,100,0.00,,---,0.00,VWS V14.01,2013-09-07 07:31:00,
2013-09-07 00:36:00,53.5,53.5,30.11,South,172,3.0,4.0,100,0.00,,---,0.00,VWS V14.01,2013-09-07 07:36:00,
2013-09-07 00:41:00,53.5,53.5,30.10,South,172,3.0,4.0,100,0.00,,---,0.00,VWS V14.01,2013-09-07 07:41:00,
2013-09-07 00:46:00,53.5,53.5,30.10,South,172,5.0,5.0,100,0.00,,---,0.00,VWS V14.01,2013-09-07 07:46:00,
2013-09-07 00:51:00,53.8,53.8,30.10,South,172,3.0,5.0,100,0.00,,---,0.00,VWS V14.01,2013-09-07 07:51:00,
2013-09-07 00:56:00,53.3,53.3,30.10,South,172,3.0,5.0,100,0.00,,---,0.00,VWS V14.01,2013-09-07 07:56:00,
2013-09-07 01:00:00,54.2,54.2,30.11,South,172,1.0,3.0,100,0.00,,---,0.00,VWS V15.00,2013-09-07 08:00:00,
2013-09-07 01:01:00,53.1,53.1,30.10,South,172,3.0,5.0,100,0.00,,---,0.00,VWS V14.01,2013-09-07 08:01:00,
2013-09-07 01:06:00,53.1,53.1,30.10,South,172,2.0,5.0,100,0.00,,---,0.00,VWS V14.01,2013-09-07 08:06:00,
2013-09-07 01:11:00,53.2,53.2,30.10,South,172,3.0,5.0,100,0.00,,---,0.00,VWS V14.01,2013-09-07 08:11:00,
2013-09-07 01:16:00,53.1,53.1,30.10,South,172,3.0,5.0,100,0.00,,---,0.00,VWS V14.01,2013-09-07 08:16:00,
2013-09-07 01:22:00,53.1,53.1,30.10,South,172,3.0,5.0,100,0.00,,---,0.00,VWS V14.01,2013-09-07 08:22:00,
2013-09-07 01:27:00,52.7,52.7,30.10,South,172,3.0,5.0,100,0.00,,---,0.00,VWS V14.01,2013-09-07 08:27:00,
2013-09-07 01:30:00,53.3,53.3,30.10,South,172,3.0,3.0,100,0.00,,---,0.00,VWS V15.00,2013-09-07 08:30:00,
2013-09-07 01:32:00,52.5,52.5,30.10,South,172,2.0,4.0,100,0.00,,---,0.00,VWS V14.01,2013-09-07 08:32:00,
2013-09-07 01:37:00,52.3,52.3,30.10,South,172,2.0,4.0,100,0.00,,---,0.00,VWS V14.01,2013-09-07 08:37:00,
2013-09-07 01:42:00,52.2,52.2,30.09,South,172,3.0,4.0,100,0.00,,---,0.00,VWS V14.01,2013-09-07 08:42:00,
2013-09-07 01:47:00,52.1,52.1,30.09,South,172,3.0,4.0,100,0.00,,---,0.00,VWS V14.01,2013-09-07 08:47:00,
2013-09-07 01:52:00,52.1,52.1,30.09,South,172,2.0,4.0,100,0.00,,---,0.00,VWS V14.01,2013-09-07 08:52:00,
2013-09-07 01:57:00,51.8,51.8,30.09,South,172,3.0,4.0,100,0.00,,---,0.00,VWS V14.01,2013-09-07 08:57:00,
2013-09-07 02:00:00,53.0,53.0,30.10,South,172,5.0,5.0,100,0.00,,---,0.00,VWS V15.00,2013-09-07 09:00:00,
2013-09-07 02:02:00,51.5,51.5,30.09,South,172,2.0,3.0,100,0.00,,---,0.00,VWS V14.01,2013-09-07 09:02:00,
2013-09-07 02:07:00,51.2,51.2,30.09,South,172,2.0,3.0,100,0.00,,---,0.00,VWS V14.01,2013-09-07 09:07:00,
2013-09-07 02:13:00,50.8,50.8,30.09,South,172,2.0,3.0,100,0.00,,---,0.00,VWS V14.01,2013-09-07 09:13:00,
2013-09-07 02:18:00,50.4,50.4,30.09,South,172,1.0,3.0,100,0.00,,---,0.00,VWS V14.01,2013-09-07 09:18:00,
2013-09-07 02:23:00,50.1,50.1,30.09,South,172,2.0,3.0,100,0.00,,---,0.00,VWS V14.01,2013-09-07 09:23:00,
2013-09-07 02:28:00,50.2,50.2,30.09,South,172,0.0,3.0,100,0.00,,---,0.00,VWS V14.01,2013-09-07 09:28:00,
2013-09-07 02:30:00,52.7,52.7,30.10,South,172,3.0,5.0,100,0.00,,---,0.00,VWS V15.00,2013-09-07 09:30:00,
2013-09-07 02:33:00,50.4,50.4,30.09,South,172,0.0,0.0,100,0.00,,---,0.00,VWS V14.01,2013-09-07 09:33:00,
2013-09-07 02:38:00,50.6,50.6,30.09,South,172,1.0,2.0,100,0.00,,---,0.00,VWS V14.01,2013-09-07 09:38:00,
2013-09-07 02:43:00,50.6,50.6,30.09,South,172,2.0,2.0,100,0.00,,---,0.00,VWS V14.01,2013-09-07 09:43:00,
2013-09-07 02:48:00,50.5,50.5,30.09,South,172,1.0,3.0,100,0.00,,---,0.00,VWS V14.01,2013-09-07 09:48:00,
2013-09-07 02:53:00,50.4,50.4,30.08,South,172,1.0,3.0,100,0.00,,---,0.00,VWS V14.01,2013-09-07 09:53:00,
2013-09-07 02:58:00,50.2,50.2,30.08,South,172,1.0,3.0,100,0.00,,---,0.00,VWS V14.01,2013-09-07 09:58:00,
2013-09-07 03:00:00,51.7,51.7,30.09,South,172,2.0,4.0,100,0.00,,---,0.00,VWS V15.00,2013-09-07 10:00:00,
2013-09-07 03:03:00,50.2,50.2,30.08,South,172,3.0,3.0,100,0.00,,---,0.00,VWS V14.01,2013-09-07 10:03:00,
2013-09-07 03:09:00,50.2,50.2,30.08,South,172,3.0,3.0,100,0.00,,---,0.00,VWS V14.01,2013-09-07 10:09:00,
2013-09-07 03:14:00,50.2,50.2,30.07,South,172,2.0,4.0,100,0.00,,---,0.00,VWS V14.01,2013-09-07 10:14:00,
2013-09-07 03:19:00,50.3,50.3,30.08,South,172,3.0,4.0,100,0.00,,---,0.00,VWS V14.01,2013-09-07 10:19:00,
2013-09-07 03:24:00,50.1,50.1,30.08,South,172,2.0,4.0,100,0.00,,---,0.00,VWS V14.01,2013-09-07 10:24:00,
2013-09-07 03:29:00,49.9,49.9,30.08,South,172,1.0,4.0,100,0.00,,---,0.00,VWS V14.01,2013-09-07 10:29:00,
2013-09-07 03:30:00,50.3,50.3,30.09,South,172,0.0,3.0,100,0.00,,---,0.00,VWS V15.00,2013-09-07 10:30:00,
2013-09-07 03:34:00,49.5,49.5,30.08,South,172,1.0,2.0,100,0.00,,---,0.00,VWS V14.01,2013-09-07 10:34:00,
2013-09-07 03:39:00,49.4,49.4,30.08,South,172,1.0,2.0,100,0.00,,---,0.00,VWS V14.01,2013-09-07 10:39:00,
2013-09-07 03:44:00,49.2,49.2,30.07,South,172,0.0,2.0,100,0.00,,---,0.00,VWS V14.01,2013-09-07 10:44:00,
2013-09-07 03:49:00,49.4,49.4,30.07,South,172,2.0,2.0,100,0.00,,---,0.00,VWS V14.01,2013-09-07 10:49:00,
2013-09-07 03:54:00,50.2,50.2,30.07,South,172,2.0,4.0,100,0.00,,---,0.00,VWS V14.01,2013-09-07 10:54:00,
2013-09-07 03:59:00,50.7,50.7,30.07,South,172,1.0,4.0,100,0.00,,---,0.00,VWS V14.01,2013-09-07 10:59:00,
2013-09-07 04:00:00,50.2,50.2,30.08,South,172,2.0,3.0,100,0.00,,---,0.00,VWS V15.00,2013-09-07 11:00:00,
2013-09-07 04:05:00,51.0,51.0,30.07,South,172,2.0,3.0,100,0.00,,---,0.00,VWS V14.01,2013-09-07 11:05:00,
2013-09-07 04:10:00,51.4,51.4,30.07,South,172,3.0,3.0,100,0.00,,---,0.00,VWS V14.01,2013-09-07 11:10:00,
2013-09-07 04:15:00,51.7,51.7,30.07,South,172,3.0,3.0,100,0.00,,---,0.00,VWS V14.01,2013-09-07 11:15:00,
2013-09-07 04:20:00,51.7,51.7,30.06,South,172,3.0,3.0,100,0.00,,---,0.00,VWS V14.01,2013-09-07 11:20:00,
2013-09-07 04:25:00,51.5,51.5,30.06,South,172,2.0,4.0,100,0.00,,---,0.00,VWS V14.01,2013-09-07 11:25:00,
2013-09-07 04:30:00,51.8,51.8,30.07,South,172,3.0,3.0,100,0.00,,---,0.00,VWS V14.01,2013-09-07 11:30:00,
2013-09-07 04:35:00,51.4,51.4,30.07,South,172,3.0,3.0,100,0.00,,---,0.00,VWS V14.01,2013-09-07 11:35:00,
2013-09-07 04:40:00,50.7,50.7,30.07,South,172,3.0,4.0,100,0.00,,---,0.00,VWS V14.01,2013-09-07 11:40:00,
2013-09-07 04:45:00,50.6,50.6,30.07,South,172,3.0,4.0,100,0.00,,---,0.00,VWS V14.01,2013-09-07 11:45:00,
2013-09-07 04:50:00,51.1,51.1,30.07,South,172,3.0,4.0,100,0.00,,---,0.00,VWS V14.01,2013-09-07 11:50:00,
2013-09-07 04:55:00,51.6,51.6,30.06,South,172,3.0,4.0,100,0.00,,---,0.00,VWS V14.01,2013-09-07 11:55:00,
2013-09-07 05:00:00,50.7,50.7,30.07,South,172,0.0,4.0,100,0.00,,---,0.00,VWS V15.00,2013-09-07 12:00:00,
2013-09-07 05:01:00,51.7,51.7,30.06,South,172,1.0,2.0,100,0.00,,---,0.00,VWS V14.01,2013-09-07 12:01:00,
2013-09-07 05:06:00,51.9,51.9,30.06,South,172,2.0,2.0,100,0.00,,---,0.00,VWS V14.01,2013-09-07 12:06:00,
2013-09-07 05:11:00,51.3,51.3,30.06,South,172,2.0,4.0,100,0.00,,---,0.00,VWS V14.01,2013-09-07 12:11:00,
2013-09-07 05:16:00,51.2,51.2,30.06,South,172,2.0,4.0,100,0.00,,---,0.00,VWS V14.01,2013-09-07 12:16:00,
2013-09-07 05:21:00,51.2,51.2,30.06,South,172,2.0,4.0,100,0.00,,---,0.00,VWS V14.01,2013-09-07 12:21:00,
2013-09-07 05:26:00,51.4,51.4,30.05,South,172,2.0,4.0,100,0.00,,---,0.00,VWS V14.01,2013-09-07 12:26:00,
2013-09-07 05:30:00,51.8,51.8,30.07,South,172,3.0,4.0,100,0.00,,---,0.00,VWS V15.00,2013-09-07 12:30:00,
2013-09-07 05:31:00,51.6,51.6,30.05,South,172,2.0,3.0,100,0.00,,---,0.00,VWS V14.01,2013-09-07 12:31:00,
2013-09-07 05:36:00,51.6,51.6,30.05,South,172,2.0,3.0,100,0.00,,---,0.00,VWS V14.01,2013-09-07 12:36:00,
2013-09-07 05:41:00,51.7,51.7,30.05,South,172,0.0,4.0,100,0.00,,---,0.00,VWS V14.01,2013-09-07 12:41:00,
2013-09-07 05:46:00,51.7,51.7,30.05,South,172,0.0,4.0,100,0.00,,---,0.00,VWS V14.01,2013-09-07 12:46:00,
2013-09-07 05:52:00,51.5,51.5,30.04,South,172,0.0,4.0,100,0.00,,---,0.00,VWS V14.01,2013-09-07 12:52:00,
2013-09-07 05:57:00,51.8,51.8,30.04,South,172,1.0,4.0,100,0.00,,---,0.00,VWS V14.01,2013-09-07 12:57:00,
2013-09-07 06:00:00,51.6,51.6,30.06,South,172,2.0,4.0,100,0.00,,---,0.00,VWS V15.00,2013-09-07 13:00:00,
2013-09-07 06:02:00,52.1,52.1,30.05,South,172,1.0,2.0,100,0.00,,---,0.00,VWS V14.01,2013-09-07 13:02:00,
2013-09-07 06:07:00,52.0,52.0,30.05,South,172,1.0,3.0,100,0.00,,---,0.00,VWS V14.01,2013-09-07 13:07:00,
2013-09-07 06:12:00,52.1,52.1,30.05,South,172,2.0,3.0,100,0.00,,---,0.00,VWS V14.01,2013-09-07 13:12:00,
2013-09-07 06:17:00,52.2,52.2,30.05,South,172,0.0,3.0,100,0.00,,---,0.00,VWS V14.01,2013-09-07 13:17:00,
2013-09-07 06:22:00,52.2,52.2,30.05,South,172,2.0,3.0,100,0.00,,---,0.00,VWS V14.01,2013-09-07 13:22:00,
2013-09-07 06:27:00,52.1,52.1,30.05,South,172,1.0,3.0,100,0.00,,---,0.00,VWS V14.01,2013-09-07 13:27:00,
2013-09-07 06:30:00,51.6,51.6,30.05,South,172,1.0,4.0,100,0.00,,---,0.00,VWS V15.00,2013-09-07 13:30:00,
2013-09-07 06:32:00,51.9,51.9,30.05,South,172,1.0,2.0,100,0.00,,---,0.00,VWS V14.01,2013-09-07 13:32:00,
2013-09-07 06:37:00,51.7,51.7,30.05,South,172,2.0,3.0,100,0.00,,---,0.00,VWS V14.01,2013-09-07 13:37:00,
2013-09-07 06:42:00,51.5,51.5,30.05,South,172,2.0,3.0,100,0.00,,---,0.00,VWS V14.01,2013-09-07 13:42:00,
2013-09-07 06:47:00,51.6,51.6,30.06,South,172,0.0,3.0,100,0.00,,---,0.00,VWS V14.01,2013-09-07 13:47:00,
2013-09-07 06:53:00,51.7,51.7,30.05,South,172,2.0,3.0,100,0.00,,---,0.00,VWS V14.01,2013-09-07 13:53:00,
2013-09-07 06:58:00,51.4,51.4,30.05,South,172,2.0,4.0,100,0.00,,---,0.00,VWS V14.01,2013-09-07 13:58:00,
2013-09-07 07:00:00,52.0,52.0,30.04,South,172,1.0,4.0,100,0.00,,---,0.00,VWS V15.00,2013-09-07 14:00:00,
2013-09-07 07:03:00,51.3,51.3,30.05,South,172,2.0,2.0,100,0.00,,---,0.00,VWS V14.01,2013-09-07 14:03:00,
2013-09-07 07:08:00,51.3,51.3,30.05,South,172,2.0,3.0,100,0.00,,---,0.00,VWS V14.01,2013-09-07 14:08:00,
2013-09-07 07:13:00,50.9,50.9,30.05,South,172,1.0,3.0,100,0.00,,---,0.00,VWS V14.01,2013-09-07 14:13:00,
2013-09-07 07:18:00,50.8,50.8,30.05,South,172,2.0,3.0,100,0.00,,---,0.00,VWS V14.01,2013-09-07 14:18:00,
2013-09-07 07:23:00,50.8,50.8,30.05,South,172,1.0,3.0,100,0.00,,---,0.00,VWS V14.01,2013-09-07 14:23:00,
2013-09-07 07:28:00,51.3,51.3,30.05,South,172,2.0,3.0,100,0.00,,---,0.00,VWS V14.01,2013-09-07 14:28:00,
2013-09-07 07:30:00,52.0,52.0,30.05,South,172,0.0,3.0,100,0.00,,---,0.00,VWS V15.00,2013-09-07 14:30:00,
2013-09-07 07:33:00,52.0,52.0,30.05,South,172,2.0,3.0,100,0.00,,---,0.00,VWS V14.01,2013-09-07 14:33:00,
2013-09-07 07:38:00,52.5,52.5,30.05,South,172,1.0,3.0,100,0.00,,---,0.00,VWS V14.01,2013-09-07 14:38:00,
2013-09-07 07:43:00,53.0,53.0,30.05,South,172,0.0,3.0,100,0.00,,---,0.00,VWS V14.01,2013-09-07 14:43:00,
2013-09-07 07:49:00,53.4,53.4,30.05,South,172,0.0,3.0,100,0.00,,---,0.00,VWS V14.01,2013-09-07 14:49:00,
2013-09-07 07:54:00,53.8,53.8,30.05,South,172,1.0,3.0,100,0.00,,---,0.00,VWS V14.01,2013-09-07 14:54:00,
2013-09-07 07:59:00,54.1,54.1,30.05,South,172,1.0,3.0,100,0.00,,---,0.00,VWS V14.01,2013-09-07 14:59:00,
2013-09-07 08:00:00,51.3,51.3,30.05,South,172,0.0,4.0,100,0.00,,---,0.00,VWS V15.00,2013-09-07 15:00:00,
2013-09-07 08:04:00,54.1,54.1,30.05,South,172,0.0,1.0,100,0.00,,---,0.00,VWS V14.01,2013-09-07 15:04:00,
2013-09-07 08:09:00,54.4,54.4,30.05,South,172,0.0,1.0,100,0.00,,---,0.00,VWS V14.01,2013-09-07 15:09:00,
2013-09-07 08:14:00,54.6,54.6,30.05,South,172,1.0,1.0,100,0.00,,---,0.00,VWS V14.01,2013-09-07 15:14:00,
2013-09-07 08:19:00,54.7,54.7,30.04,South,172,0.0,2.0,100,0.00,,---,0.00,VWS V14.01,2013-09-07 15:19:00,
2013-09-07 08:24:00,54.9,54.9,30.05,South,172,0.0,2.0,100,0.00,,---,0.00,VWS V14.01,2013-09-07 15:24:00,
2013-09-07 08:29:00,54.9,54.9,30.05,South,172,0.0,2.0,100,0.00,,---,0.00,VWS V14.01,2013-09-07 15:29:00,
2013-09-07 08:30:00,51.4,51.4,30.05,South,172,1.0,3.0,100,0.00,,---,0.00,VWS V15.00,2013-09-07 15:30:00,
2013-09-07 08:34:00,55.2,55.2,30.05,South,172,0.0,0.0,100,0.00,,---,0.00,VWS V14.01,2013-09-07 15:34:00,
2013-09-07 08:40:00,55.8,55.8,30.05,South,172,0.0,0.0,100,0.00,,---,0.00,VWS V14.01,2013-09-07 15:40:00,
2013-09-07 08:45:00,56.3,56.3,30.05,South,172,2.0,2.0,100,0.00,,---,0.00,VWS V14.01,2013-09-07 15:45:00,
2013-09-07 08:50:00,56.7,56.7,30.04,South,172,1.0,3.0,100,0.00,,---,0.00,VWS V14.01,2013-09-07 15:50:00,
2013-09-07 08:55:00,57.1,56.3,30.04,South,172,0.0,3.0,97,0.00,,---,0.00,VWS V14.01,2013-09-07 15:55:00,
2013-09-07 09:00:00,57.6,56.2,30.04,South,172,0.0,1.0,95,0.00,,---,0.00,VWS V14.01,2013-09-07 16:00:00,
2013-09-07 09:05:00,57.9,56.8,30.04,South,172,0.0,2.0,96,0.00,,---,0.00,VWS V14.01,2013-09-07 16:05:00,
2013-09-07 09:10:00,58.2,56.8,30.04,South,172,1.0,3.0,95,0.00,,---,0.00,VWS V14.01,2013-09-07 16:10:00,
2013-09-07 09:15:00,58.5,57.1,30.05,South,172,1.0,3.0,95,0.00,,---,0.00,VWS V14.01,2013-09-07 16:15:00,
2013-09-07 09:20:00,58.8,56.8,30.04,South,172,2.0,4.0,93,0.00,,---,0.00,VWS V14.01,2013-09-07 16:20:00,
2013-09-07 09:25:00,59.0,57.0,30.04,South,172,3.0,4.0,93,0.00,,---,0.00,VWS V14.01,2013-09-07 16:25:00,
2013-09-07 09:30:00,59.2,56.6,30.05,WSW,243,3.0,4.0,91,0.00,,---,0.00,VWS V14.01,2013-09-07 16:30:00,
2013-09-07 09:36:00,59.4,57.1,30.05,West,260,3.0,6.0,92,0.00,,---,0.00,VWS V14.01,2013-09-07 16:36:00,
2013-09-07 09:41:00,59.9,57.3,30.05,West,260,3.0,6.0,91,0.00,,---,0.00,VWS V14.01,2013-09-07 16:41:00,
2013-09-07 09:46:00,60.5,58.2,30.05,West,260,0.0,6.0,92,0.00,,---,0.00,VWS V14.01,2013-09-07 16:46:00,
2013-09-07 09:51:00,61.3,58.0,30.04,West,260,0.0,6.0,89,0.00,,---,0.00,VWS V14.01,2013-09-07 16:51:00,
2013-09-07 09:56:00,61.1,58.2,30.05,West,260,2.0,6.0,90,0.00,,---,0.00,VWS V14.01,2013-09-07 16:56:00,
2013-09-07 10:00:00,57.5,56.4,30.04,South,172,1.0,3.0,96,0.00,,---,0.00,VWS V15.00,2013-09-07 17:00:00,
2013-09-07 10:01:00,61.0,58.0,30.05,West,260,3.0,3.0,90,0.00,,---,0.00,VWS V14.01,2013-09-07 17:01:00,
2013-09-07 10:06:00,61.0,57.4,30.05,West,260,0.0,4.0,88,0.00,,---,0.00,VWS V14.01,2013-09-07 17:06:00,
2013-09-07 10:11:00,61.6,58.0,30.05,West,268,1.0,4.0,88,0.00,,---,0.00,VWS V14.01,2013-09-07 17:11:00,
2013-09-07 10:16:00,62.0,58.7,30.05,West,267,3.0,4.0,89,0.00,,---,0.00,VWS V14.01,2013-09-07 17:16:00,
2013-09-07 10:22:00,62.5,58.3,30.05,West,278,5.0,5.0,86,0.00,,---,0.00,VWS V14.01,2013-09-07 17:22:00,
2013-09-07 10:27:00,62.0,57.8,30.05,West,262,4.0,6.0,86,0.00,,---,0.00,VWS V14.01,2013-09-07 17:27:00,
2013-09-07 10:30:00,59.2,56.9,30.05,WSW,243,3.0,5.0,92,0.00,,---,0.00,VWS V15.00,2013-09-07 17:30:00,
2013-09-07 10:32:00,61.9,58.0,30.05,West,271,1.0,4.0,87,0.00,,---,0.00,VWS V14.01,2013-09-07 17:32:00,
2013-09-07 10:37:00,62.6,58.4,30.05,WSW,257,1.0,5.0,86,0.00,,---,0.00,VWS V14.01,2013-09-07 17:37:00,
2013-09-07 10:42:00,63.0,58.1,30.05,WSW,257,5.0,5.0,84,0.00,,---,0.00,VWS V14.01,2013-09-07 17:42:00,
2013-09-07 10:47:00,62.6,58.0,30.04,WSW,257,2.0,5.0,85,0.00,,---,0.00,VWS V14.01,2013-09-07 17:47:00,
2013-09-07 10:52:00,63.3,58.1,30.04,WSW,257,0.0,5.0,83,0.00,,---,0.00,VWS V14.01,2013-09-07 17:52:00,
2013-09-07 10:57:00,64.1,59.5,30.04,WSW,257,2.0,5.0,85,0.00,,---,0.00,VWS V14.01,2013-09-07 17:57:00,
2013-09-07 11:00:00,61.0,58.0,30.05,West,260,1.0,6.0,90,0.00,,---,0.00,VWS V15.00,2013-09-07 18:00:00,
2013-09-07 11:02:00,64.6,59.7,30.04,WSW,257,1.0,2.0,84,0.00,,---,0.00,VWS V14.01,2013-09-07 18:02:00,
2013-09-07 11:07:00,64.3,58.7,30.04,WNW,282,1.0,6.0,82,0.00,,---,0.00,VWS V14.01,2013-09-07 18:07:00,
2013-09-07 11:12:00,64.7,59.4,30.03,West,275,2.0,6.0,83,0.00,,---,0.00,VWS V14.01,2013-09-07 18:12:00,
2013-09-07 11:18:00,64.6,59.0,30.03,NW,314,4.0,7.0,82,0.00,,---,0.00,VWS V14.01,2013-09-07 18:18:00,
2013-09-07 11:23:00,64.0,59.1,30.04,NNW,334,0.0,7.0,84,0.00,,---,0.00,VWS V14.01,2013-09-07 18:23:00,
2013-09-07 11:28:00,64.3,59.0,30.03,WNW,288,4.0,7.0,83,0.00,,---,0.00,VWS V14.01,2013-09-07 18:28:00,
2013-09-07 11:30:00,61.8,57.9,30.05,West,262,3.0,6.0,87,0.00,,---,0.00,VWS V15.00,2013-09-07 18:30:00,
2013-09-07 11:33:00,64.4,59.5,30.03,West,277,2.0,7.0,84,0.00,,---,0.00,VWS V14.01,2013-09-07 18:33:00,
2013-09-07 11:38:00,65.1,59.5,30.03,WNW,289,6.0,7.0,82,0.00,,---,0.00,VWS V14.01,2013-09-07 18:38:00,
2013-09-07 11:43:00,65.2,59.6,30.04,West,270,5.0,7.0,82,0.00,,---,0.00,VWS V14.01,2013-09-07 18:43:00,
2013-09-07 11:48:00,65.1,59.1,30.03,WSW,248,4.0,8.0,81,0.00,,---,0.00,VWS V14.01,2013-09-07 18:48:00,
2013-09-07 11:53:00,65.3,59.3,30.03,WSW,249,5.0,8.0,81,0.00,,---,0.00,VWS V14.01,2013-09-07 18:53:00,
2013-09-07 11:58:00,65.3,59.3,30.03,WSW,248,4.0,8.0,81,0.00,,---,0.00,VWS V14.01,2013-09-07 18:58:00,
2013-09-07 12:00:00,64.5,59.6,30.04,WSW,257,1.0,5.0,84,0.00,,---,0.00,VWS V15.00,2013-09-07 19:00:00,
2013-09-07 12:03:00,65.8,59.5,30.03,WSW,247,5.0,6.0,80,0.00,,---,0.00,VWS V14.01,2013-09-07 19:03:00,
2013-09-07 12:08:00,66.6,60.6,30.03,NW,318,3.0,6.0,81,0.00,,---,0.00,VWS V14.01,2013-09-07 19:08:00,
2013-09-07 12:13:00,66.8,59.7,30.03,West,278,4.0,10.0,78,0.00,,---,0.00,VWS V14.01,2013-09-07 19:13:00,
2013-09-07 12:19:00,66.4,59.7,30.03,NNW,330,6.0,10.0,79,0.00,,---,0.00,VWS V14.01,2013-09-07 19:19:00,
2013-09-07 12:24:00,66.3,59.6,30.02,WNW,289,5.0,10.0,79,0.00,,---,0.00,VWS V14.01,2013-09-07 19:24:00,
2013-09-07 12:29:00,66.9,59.8,30.02,WSW,255,5.0,10.0,78,0.00,,---,0.00,VWS V14.01,2013-09-07 19:29:00,
2013-09-07 12:30:00,64.3,59.4,30.03,WNW,286,4.0,7.0,84,0.00,,---,0.00,VWS V15.00,2013-09-07 19:30:00,
2013-09-07 12:34:00,67.6,60.5,30.02,WSW,247,2.0,5.0,78,0.00,,---,0.00,VWS V14.01,2013-09-07 19:34:00,
2013-09-07 12:39:00,67.7,60.6,30.02,West,270,5.0,7.0,78,0.00,,---,0.00,VWS V14.01,2013-09-07 19:39:00,
2013-09-07 12:44:00,67.7,60.6,30.02,WSW,250,2.0,7.0,78,0.00,,---,0.00,VWS V14.01,2013-09-07 19:44:00,
2013-09-07 12:49:00,67.5,60.4,30.02,NW,304,5.0,9.0,78,0.00,,---,0.00,VWS V14.01,2013-09-07 19:49:00,
2013-09-07 12:54:00,67.9,61.2,30.02,WNW,286,6.0,9.0,79,0.00,,---,0.00,VWS V14.01,2013-09-07 19:54:00,
2013-09-07 12:59:00,68.1,61.0,30.02,WNW,289,4.0,11.0,78,0.00,,---,0.00,VWS V14.01,2013-09-07 19:59:00,
2013-09-07 13:00:00,65.5,59.5,30.03,WSW,248,3.0,8.0,81,0.00,,---,0.00,VWS V15.00,2013-09-07 20:00:00,
2013-09-07 13:05:00,68.1,60.6,30.02,NW,310,3.0,8.0,77,0.00,,---,0.00,VWS V14.01,2013-09-07 20:05:00,
2013-09-07 13:10:00,68.1,61.0,30.02,WNW,290,6.0,10.0,78,0.00,,---,0.00,VWS V14.01,2013-09-07 20:10:00,
2013-09-07 13:15:00,68.4,61.6,30.02,West,268,8.0,10.0,79,0.00,,---,0.00,VWS V14.01,2013-09-07 20:15:00,
2013-09-07 13:20:00,68.8,61.3,30.02,West,274,2.0,10.0,77,0.00,,---,0.00,VWS V14.01,2013-09-07 20:20:00,
2013-09-07 13:25:00,68.9,61.0,30.02,WNW,300,2.0,10.0,76,0.00,,---,0.00,VWS V14.01,2013-09-07 20:25:00,
2013-09-07 13:30:00,69.3,61.4,30.02,WNW,292,6.0,8.0,76,0.00,,---,0.00,VWS V14.01,2013-09-07 20:30:00,
2013-09-07 13:35:00,69.4,61.5,30.02,NNW,328,5.0,10.0,76,0.00,,---,0.00,VWS V14.01,2013-09-07 20:35:00,
2013-09-07 13:40:00,69.4,61.5,30.02,WNW,288,8.0,10.0,76,0.00,,---,0.00,VWS V14.01,2013-09-07 20:40:00,
2013-09-07 13:45:00,69.4,61.5,30.02,WNW,284,5.0,11.0,76,0.00,,---,0.00,VWS V14.01,2013-09-07 20:45:00,
2013-09-07 13:50:00,69.5,61.2,30.02,WNW,291,5.0,12.0,75,0.00,,---,0.00,VWS V14.01,2013-09-07 20:50:00,
2013-09-07 13:56:00,69.3,61.8,30.02,West,259,7.0,12.0,77,0.00,,---,0.00,VWS V14.01,2013-09-07 20:56:00,
2013-09-07 14:00:00,68.1,61.0,30.02,WNW,289,4.0,11.0,78,0.00,,---,0.00,VWS V15.00,2013-09-07 21:00:00,
2013-09-07 14:01:00,69.2,61.3,30.02,WNW,284,5.0,7.0,76,0.00,,---,0.00,VWS V14.01,2013-09-07 21:01:00,
2013-09-07 14:06:00,69.5,62.0,30.02,NW,325,4.0,9.0,77,0.00,,---,0.00,VWS V14.01,2013-09-07 21:06:00,
2013-09-07 14:11:00,69.7,61.4,30.02,WSW,257,6.0,12.0,75,0.00,,---,0.00,VWS V14.01,2013-09-07 21:11:00,
2013-09-07 14:16:00,69.7,61.8,30.01,WSW,256,5.0,12.0,76,0.00,,---,0.00,VWS V14.01,2013-09-07 21:16:00,
2013-09-07 14:21:00,70.1,62.2,30.02,NW,317,3.0,12.0,76,0.00,,---,0.00,VWS V14.01,2013-09-07 21:21:00,
2013-09-07 14:26:00,70.0,61.7,30.01,NW,313,5.0,12.0,75,0.00,,---,0.00,VWS V14.01,2013-09-07 21:26:00,
2013-09-07 14:30:00,69.2,61.7,30.02,West,270,6.0,10.0,77,0.00,,---,0.00,VWS V15.00,2013-09-07 21:30:00,
2013-09-07 14:31:00,70.2,61.9,30.01,West,278,4.0,4.0,75,0.00,,---,0.00,VWS V14.01,2013-09-07 21:31:00,
2013-09-07 14:36:00,70.7,62.0,30.01,West,260,3.0,7.0,74,0.00,,---,0.00,VWS V14.01,2013-09-07 21:36:00,
2013-09-07 14:41:00,71.8,62.7,30.01,WSW,245,8.0,8.0,73,0.00,,---,0.00,VWS V14.01,2013-09-07 21:41:00,
2013-09-07 14:46:00,71.4,61.5,30.01,North,358,6.0,8.0,71,0.00,,---,0.00,VWS V14.01,2013-09-07 21:46:00,
2013-09-07 14:51:00,70.8,62.1,30.01,West,277,5.0,8.0,74,0.00,,---,0.00,VWS V14.01,2013-09-07 21:51:00,
2013-09-07 14:57:00,70.8,62.1,30.01,NNW,331,5.0,8.0,74,0.00,,---,0.00,VWS V14.01,2013-09-07 21:57:00,
2013-09-07 15:00:00,69.3,61.0,30.02,West,267,4.0,12.0,75,0.00,,---,0.00,VWS V15.00,2013-09-07 22:00:00,
2013-09-07 15:02:00,71.2,62.1,30.01,WSW,254,4.0,7.0,73,0.00,,---,0.00,VWS V14.01,2013-09-07 22:02:00,
2013-09-07 15:07:00,71.2,61.7,30.01,NNW,335,3.0,9.0,72,0.00,,---,0.00,VWS V14.01,2013-09-07 22:07:00,
2013-09-07 15:12:00,71.3,62.2,30.01,West,279,6.0,10.0,73,0.00,,---,0.00,VWS V14.01,2013-09-07 22:12:00,
2013-09-07 15:17:00,71.6,62.5,30.01,West,267,4.0,10.0,73,0.00,,---,0.00,VWS V14.01,2013-09-07 22:17:00,
2013-09-07 15:22:00,72.1,62.6,30.00,West,274,5.0,10.0,72,0.00,,---,0.00,VWS V14.01,2013-09-07 22:22:00,
2013-09-07 15:27:00,72.0,62.1,30.01,West,273,3.0,10.0,71,0.00,,---,0.00,VWS V14.01,2013-09-07 22:27:00,
2013-09-07 15:30:00,70.0,62.1,30.01,West,278,0.0,12.0,76,0.00,,---,0.00,VWS V15.00,2013-09-07 22:30:00,
2013-09-07 15:32:00,71.6,62.1,30.01,North,350,9.0,9.0,72,0.00,,---,0.00,VWS V14.01,2013-09-07 22:32:00,
2013-09-07 15:37:00,71.2,62.1,30.01,NNW,331,4.0,9.0,73,0.00,,---,0.00,VWS V14.01,2013-09-07 22:37:00,
2013-09-07 15:42:00,71.6,62.5,30.01,West,262,2.0,9.0,73,0.00,,---,0.00,VWS V14.01,2013-09-07 22:42:00,
2013-09-07 15:47:00,71.5,62.0,30.01,WNW,302,9.0,11.0,72,0.00,,---,0.00,VWS V14.01,2013-09-07 22:47:00,
2013-09-07 15:53:00,71.4,61.9,30.01,NNW,335,6.0,11.0,72,0.00,,---,0.00,VWS V14.01,2013-09-07 22:53:00,
2013-09-07 15:58:00,71.6,62.9,30.00,West,272,6.0,11.0,74,0.00,,---,0.00,VWS V14.01,2013-09-07 22:58:00,
2013-09-07 16:00:00,71.0,61.9,30.01,NNW,342,3.0,8.0,73,0.00,,---,0.00,VWS V15.00,2013-09-07 23:00:00,
2013-09-07 16:03:00,72.0,61.7,30.00,North,0,3.0,7.0,70,0.00,,---,0.00,VWS V14.01,2013-09-07 23:03:00,
2013-09-07 16:08:00,71.9,62.0,30.00,WNW,293,6.0,8.0,71,0.00,,---,0.00,VWS V14.01,2013-09-07 23:08:00,
2013-09-07 16:13:00,72.2,62.7,30.00,North,358,4.0,8.0,72,0.00,,---,0.00,VWS V14.01,2013-09-07 23:13:00,
2013-09-07 16:18:00,72.3,62.4,30.00,North,10,4.0,8.0,71,0.00,,---,0.00,VWS V14.01,2013-09-07 23:18:00,
2013-09-07 16:23:00,72.5,63.0,30.00,NNW,338,2.0,8.0,72,0.00,,---,0.00,VWS V14.01,2013-09-07 23:23:00,
2013-09-07 16:28:00,72.6,61.9,30.00,WNW,283,6.0,8.0,69,0.00,,---,0.00,VWS V14.01,2013-09-07 23:28:00,
2013-09-07 16:30:00,71.8,62.3,30.01,WNW,295,5.0,10.0,72,0.00,,---,0.00,VWS V15.00,2013-09-07 23:30:00,
2013-09-07 16:33:00,72.2,62.3,30.00,WNW,301,5.0,7.0,71,0.00,,---,0.00,VWS V14.01,2013-09-07 23:33:00,
2013-09-07 16:38:00,72.1,63.0,30.00,NNW,343,1.0,7.0,73,0.00,,---,0.00,VWS V14.01,2013-09-07 23:38:00,
2013-09-07 16:43:00,72.6,63.1,30.00,NW,326,6.0,7.0,72,0.00,,---,0.00,VWS V14.01,2013-09-07 23:43:00,
2013-09-07 16:48:00,71.9,62.4,30.00,NNW,338,0.0,7.0,72,0.00,,---,0.00,VWS V14.01,2013-09-07 23:48:00,
2013-09-07 16:53:00,71.8,62.7,30.00,NNW,343,3.0,7.0,73,0.00,,---,0.00,VWS V14.01,2013-09-07 23:53:00,
2013-09-07 16:59:00,71.7,62.2,29.99,NW,318,1.0,7.0,72,0.00,,---,0.00,VWS V14.01,2013-09-07 23:59:00,
2013-09-07 17:00:00,71.9,62.4,30.00,NW,315,5.0,11.0,72,0.00,,---,0.00,VWS V15.00,2013-09-08 00:00:00,
2013-09-07 17:04:00,72.0,62.9,29.99,WNW,292,4.0,6.0,73,0.00,,---,0.00,VWS V14.01,2013-09-08 00:04:00,
2013-09-07 17:09:00,72.4,62.9,30.00,NW,315,5.0,9.0,72,0.00,,---,0.00,VWS V14.01,2013-09-08 00:09:00,
2013-09-07 17:14:00,72.2,62.3,29.99,NNW,345,4.0,9.0,71,0.00,,---,0.00,VWS V14.01,2013-09-08 00:14:00,
2013-09-07 17:19:00,72.1,62.6,30.00,North,0,2.0,9.0,72,0.00,,---,0.00,VWS V14.01,2013-09-08 00:19:00,
2013-09-07 17:24:00,72.7,62.8,30.00,NNW,329,4.0,9.0,71,0.00,,---,0.00,VWS V14.01,2013-09-08 00:24:00,
2013-09-07 17:29:00,72.5,63.4,30.00,NW,305,4.0,9.0,73,0.00,,---,0.00,VWS V14.01,2013-09-08 00:29:00,
2013-09-07 17:30:00,72.6,62.7,30.00,NW,316,6.0,8.0,71,0.00,,---,0.00,VWS V15.00,2013-09-08 00:30:00,
2013-09-07 17:34:00,72.2,62.7,30.00,NW,317,3.0,7.0,72,0.00,,---,0.00,VWS V14.01,2013-09-08 00:34:00,
2013-09-07 17:39:00,72.3,63.2,30.00,NW,310,4.0,7.0,73,0.00,,---,0.00,VWS V14.01,2013-09-08 00:39:00,
2013-09-07 17:44:00,72.3,63.2,30.00,NW,318,4.0,7.0,73,0.00,,---,0.00,VWS V14.01,2013-09-08 00:44:00,
2013-09-07 17:49:00,72.2,62.7,30.00,NW,316,4.0,7.0,72,0.00,,---,0.00,VWS V14.01,2013-09-08 00:49:00,
2013-09-07 17:54:00,72.1,63.0,29.99,NW,306,3.0,7.0,73,0.00,,---,0.00,VWS V14.01,2013-09-08 00:54:00,
2013-09-07 17:59:00,72.6,63.5,29.99,North,9,3.0,7.0,73,0.00,,---,0.00,VWS V14.01,2013-09-08 00:59:00,
2013-09-07 18:00:00,71.7,62.6,29.99,North,356,4.0,7.0,73,0.00,,---,0.00,VWS V15.00,2013-09-08 01:00:00,
2013-09-07 18:05:00,72.5,63.4,30.00,WNW,302,3.0,6.0,73,0.00,,---,0.00,VWS V14.01,2013-09-08 01:05:00,
2013-09-07 18:10:00,72.1,62.6,30.00,NNW,347,5.0,8.0,72,0.00,,---,0.00,VWS V14.01,2013-09-08 01:10:00,
2013-09-07 18:15:00,71.9,62.8,30.00,WSW,256,5.0,8.0,73,0.00,,---,0.00,VWS V14.01,2013-09-08 01:15:00,
2013-09-07 18:20:00,71.9,63.2,30.00,WNW,287,3.0,8.0,74,0.00,,---,0.00,VWS V14.01,2013-09-08 01:20:00,
2013-09-07 18:25:00,71.7,63.4,30.00,NNW,338,3.0,8.0,75,0.00,,---,0.00,VWS V14.01,2013-09-08 01:25:00,
2013-09-07 18:30:00,71.4,63.1,29.99,NNW,333,3.0,4.0,75,0.00,,---,0.00,VWS V14.01,2013-09-08 01:30:00,
2013-09-07 18:35:00,71.4,63.5,30.00,NNW,331,0.0,4.0,76,0.00,,---,0.00,VWS V14.01,2013-09-08 01:35:00,
2013-09-07 18:40:00,71.3,63.0,30.00,NNW,346,3.0,5.0,75,0.00,,---,0.00,VWS V14.01,2013-09-08 01:40:00,
2013-09-07 18:45:00,71.3,63.7,30.00,NNW,346,2.0,5.0,77,0.00,,---,0.00,VWS V14.01,2013-09-08 01:45:00,
2013-09-07 18:50:00,71.2,63.3,30.00,East,82,2.0,5.0,76,0.00,,---,0.00,VWS V14.01,2013-09-08 01:50:00,
2013-09-07 18:55:00,70.8,63.2,30.00,North,0,0.0,5.0,77,0.00,,---,0.00,VWS V14.01,2013-09-08 01:55:00,
2013-09-07 19:00:00,72.6,63.5,29.99,North,9,3.0,7.0,73,0.00,,---,0.00,VWS V15.00,2013-09-08 02:00:00,
2013-09-07 19:01:00,70.4,63.2,30.00,North,0,0.0,1.0,78,0.00,,---,0.00,VWS V14.01,2013-09-08 02:01:00,
2013-09-07 19:06:00,70.0,63.2,30.00,North,0,0.0,1.0,79,0.00,,---,0.00,VWS V14.01,2013-09-08 02:06:00,
2013-09-07 19:11:00,69.6,63.5,29.99,North,0,0.0,1.0,81,0.00,,---,0.00,VWS V14.01,2013-09-08 02:11:00,
2013-09-07 19:16:00,69.1,63.0,30.00,North,0,0.0,1.0,81,0.00,,---,0.00,VWS V14.01,2013-09-08 02:16:00,
2013-09-07 19:21:00,68.6,62.9,30.00,North,0,0.0,3.0,82,0.00,,---,0.00,VWS V14.01,2013-09-08 02:21:00,
2013-09-07 19:26:00,68.0,62.7,30.00,North,0,0.0,3.0,83,0.00,,---,0.00,VWS V14.01,2013-09-08 02:26:00,
2013-09-07 19:30:00,71.4,63.1,30.00,NNW,339,3.0,8.0,75,0.00,,---,0.00,VWS V15.00,2013-09-08 02:30:00,
2013-09-07 19:31:00,67.4,62.1,30.00,North,0,1.0,2.0,83,0.00,,---,0.00,VWS V14.01,2013-09-08 02:31:00,
2013-09-07 19:36:00,67.0,62.0,30.00,North,0,2.0,3.0,84,0.00,,---,0.00,VWS V14.01,2013-09-08 02:36:00,
2013-09-07 19:41:00,66.6,62.0,30.00,North,0,2.0,3.0,85,0.00,,---,0.00,VWS V14.01,2013-09-08 02:41:00,
2013-09-07 19:46:00,66.2,61.6,30.00,North,0,2.0,3.0,85,0.00,,---,0.00,VWS V14.01,2013-09-08 02:46:00,
2013-09-07 19:51:00,65.8,61.8,30.00,North,0,2.0,3.0,87,0.00,,---,0.00,VWS V14.01,2013-09-08 02:51:00,
2013-09-07 19:57:00,65.4,61.8,30.00,North,0,2.0,3.0,88,0.00,,---,0.00,VWS V14.01,2013-09-08 02:57:00,
2013-09-07 20:00:00,70.5,63.0,30.00,North,0,0.0,5.0,77,0.00,,---,0.00,VWS V15.00,2013-09-08 03:00:00,
2013-09-07 20:02:00,64.8,61.8,30.00,North,0,1.0,2.0,90,0.00,,---,0.00,VWS V14.01,2013-09-08 03:02:00,
2013-09-07 20:07:00,64.3,61.3,30.01,North,0,2.0,3.0,90,0.00,,---,0.00,VWS V14.01,2013-09-08 03:07:00,
2013-09-07 20:12:00,64.1,61.4,30.01,North,0,2.0,3.0,91,0.00,,---,0.00,VWS V14.01,2013-09-08 03:12:00,
2013-09-07 20:17:00,64.2,61.5,30.01,North,0,1.0,3.0,91,0.00,,---,0.00,VWS V14.01,2013-09-08 03:17:00,
2013-09-07 20:22:00,64.4,61.4,30.01,North,0,2.0,3.0,90,0.00,,---,0.00,VWS V14.01,2013-09-08 03:22:00,
2013-09-07 20:27:00,64.5,61.5,30.01,North,0,2.0,3.0,90,0.00,,---,0.00,VWS V14.01,2013-09-08 03:27:00,
2013-09-07 20:30:00,67.6,62.3,30.00,North,0,1.0,3.0,83,0.00,,---,0.00,VWS V15.00,2013-09-08 03:30:00,
2013-09-07 20:32:00,64.5,61.5,30.01,North,0,2.0,2.0,90,0.00,,---,0.00,VWS V14.01,2013-09-08 03:32:00,
2013-09-07 20:37:00,64.3,61.3,30.01,North,0,1.0,3.0,90,0.00,,---,0.00,VWS V14.01,2013-09-08 03:37:00,
2013-09-07 20:43:00,64.2,61.2,30.01,North,0,2.0,3.0,90,0.00,,---,0.00,VWS V14.01,2013-09-08 03:43:00,
2013-09-07 20:48:00,64.1,61.1,30.02,North,0,2.0,3.0,90,0.00,,---,0.00,VWS V14.01,2013-09-08 03:48:00,
2013-09-07 20:53:00,63.8,61.1,30.01,North,0,3.0,3.0,91,0.00,,---,0.00,VWS V14.01,2013-09-08 03:53:00,
2013-09-07 20:58:00,63.5,61.1,30.02,North,0,2.0,3.0,92,0.00,,---,0.00,VWS V14.01,2013-09-08 03:58:00,
2013-09-07 21:00:00,65.0,61.7,30.00,North,0,2.0,3.0,89,0.00,,---,0.00,VWS V15.00,2013-09-08 04:00:00,
2013-09-07 21:01:00,63.4,61.0,30.02,North,0,2.0,3.0,92,0.00,,---,0.00,VWS V14.01,2013-09-08 04:01:00,
2013-09-07 21:03:00,63.4,61.0,30.02,North,0,1.0,3.0,92,0.00,,---,0.00,VWS V14.01,2013-09-08 04:03:00,
2013-09-07 21:04:00,63.3,60.9,30.02,North,0,3.0,3.0,92,0.00,,---,0.00,VWS V14.01,2013-09-08 04:04:00,
2013-09-07 21:05:00,63.3,61.2,30.02,North,0,2.0,3.0,93,0.00,,---,0.00,VWS V14.01,2013-09-08 04:05:00,
2013-09-07 21:10:00,63.2,60.8,30.02,North,0,2.0,4.0,92,0.00,,---,0.00,VWS V14.01,2013-09-08 04:10:00,
2013-09-07 21:15:00,63.7,61.0,30.02,North,0,2.0,4.0,91,0.00,,---,0.00,VWS V14.01,2013-09-08 04:15:00,
2013-09-07 21:20:00,63.9,61.2,30.02,North,0,3.0,4.0,91,0.00,,---,0.00,VWS V14.01,2013-09-08 04:20:00,
2013-09-07 21:25:00,63.8,61.1,30.01,North,0,3.0,4.0,91,0.00,,---,0.00,VWS V14.01,2013-09-08 04:25:00,
2013-09-07 21:30:00,63.6,60.9,30.02,ENE,59,4.0,4.0,91,0.00,,---,0.00,VWS V14.01,2013-09-08 04:30:00,
2013-09-07 21:35:00,63.7,61.0,30.02,ENE,59,3.0,4.0,91,0.00,,---,0.00,VWS V14.01,2013-09-08 04:35:00,
2013-09-07 21:40:00,63.6,60.9,30.02,ENE,59,3.0,4.0,91,0.00,,---,0.00,VWS V14.01,2013-09-08 04:40:00,
2013-09-07 21:45:00,63.7,61.0,30.02,ENE,59,2.0,4.0,91,0.00,,---,0.00,VWS V14.01,2013-09-08 04:45:00,
2013-09-07 21:51:00,63.4,60.7,30.02,ENE,59,3.0,4.0,91,0.00,,---,0.00,VWS V14.01,2013-09-08 04:51:00,
2013-09-07 21:56:00,63.1,60.7,30.02,ENE,59,3.0,4.0,92,0.00,,---,0.00,VWS V14.01,2013-09-08 04:56:00,
2013-09-07 22:00:00,63.4,61.0,30.02,North,0,3.0,4.0,92,0.00,,---,0.00,VWS V15.00,2013-09-08 05:00:00,
2013-09-07 22:01:00,62.8,60.8,30.02,ENE,59,2.0,3.0,93,0.00,,---,0.00,VWS V14.01,2013-09-08 05:01:00,
2013-09-07 22:06:00,62.7,60.7,30.02,ENE,59,2.0,3.0,93,0.00,,---,0.00,VWS V14.01,2013-09-08 05:06:00,
2013-09-07 22:11:00,62.7,60.7,30.02,ENE,59,3.0,3.0,93,0.00,,---,0.00,VWS V14.01,2013-09-08 05:11:00,
2013-09-07 22:16:00,62.6,60.5,30.02,ENE,59,2.0,3.0,93,0.00,,---,0.00,VWS V14.01,2013-09-08 05:16:00,
2013-09-07 22:21:00,62.6,60.8,30.02,ENE,59,3.0,3.0,94,0.00,,---,0.00,VWS V14.01,2013-09-08 05:21:00,
2013-09-07 22:26:00,62.5,60.8,30.02,ENE,59,1.0,3.0,94,0.00,,---,0.00,VWS V14.01,2013-09-08 05:26:00,
2013-09-07 22:30:00,63.6,60.9,30.02,ENE,59,2.0,4.0,91,0.00,,---,0.00,VWS V15.00,2013-09-08 05:30:00,
2013-09-07 22:31:00,62.5,60.8,30.02,ENE,59,2.0,3.0,94,0.00,,---,0.00,VWS V14.01,2013-09-08 05:31:00,
2013-09-07 22:36:00,62.4,60.7,30.02,ENE,59,1.0,3.0,94,0.00,,---,0.00,VWS V14.01,2013-09-08 05:36:00,
2013-09-07 22:42:00,62.4,60.7,30.02,ENE,59,2.0,3.0,94,0.00,,---,0.00,VWS V14.01,2013-09-08 05:42:00,
2013-09-07 22:47:00,62.4,60.7,30.02,ENE,59,2.0,3.0,94,0.00,,---,0.00,VWS V14.01,2013-09-08 05:47:00,
2013-09-07 22:52:00,62.2,60.5,30.02,ENE,59,3.0,3.0,94,0.00,,---,0.00,VWS V14.01,2013-09-08 05:52:00,
2013-09-07 22:57:00,61.9,60.5,30.02,ENE,59,2.0,3.0,95,0.00,,---,0.00,VWS V14.01,2013-09-08 05:57:00,
2013-09-07 23:00:00,62.9,60.8,30.02,ENE,59,2.0,4.0,93,0.00,,---,0.00,VWS V15.00,2013-09-08 06:00:00,
2013-09-07 23:02:00,61.8,60.4,30.02,ENE,59,3.0,3.0,95,0.00,,---,0.00,VWS V14.01,2013-09-08 06:02:00,
2013-09-07 23:07:00,61.7,60.3,30.02,ENE,59,2.0,3.0,95,0.00,,---,0.00,VWS V14.01,2013-09-08 06:07:00,
2013-09-07 23:12:00,61.7,60.5,30.02,ENE,59,3.0,3.0,96,0.00,,---,0.00,VWS V14.01,2013-09-08 06:12:00,
2013-09-07 23:17:00,61.6,60.5,30.02,ENE,59,3.0,3.0,96,0.00,,---,0.00,VWS V14.01,2013-09-08 06:17:00,
2013-09-07 23:22:00,61.6,60.5,30.02,ENE,59,1.0,3.0,96,0.00,,---,0.00,VWS V14.01,2013-09-08 06:22:00,
2013-09-07 23:27:00,61.6,60.5,30.02,ENE,59,2.0,4.0,96,0.00,,---,0.00,VWS V14.01,2013-09-08 06:27:00,
2013-09-07 23:30:00,62.5,60.8,30.02,ENE,59,2.0,3.0,94,0.00,,---,0.00,VWS V15.00,2013-09-08 06:30:00,
2013-09-07 23:33:00,61.5,60.3,30.02,ENE,59,2.0,3.0,96,0.00,,---,0.00,VWS V14.01,2013-09-08 06:33:00,
2013-09-07 23:38:00,61.5,60.3,30.02,ENE,59,2.0,3.0,96,0.00,,---,0.00,VWS V14.01,2013-09-08 06:38:00,
2013-09-07 23:43:00,61.5,60.3,30.02,ENE,59,1.0,3.0,96,0.00,,---,0.00,VWS V14.01,2013-09-08 06:43:00,
2013-09-07 23:48:00,61.7,60.5,30.02,ENE,59,2.0,3.0,96,0.00,,---,0.00,VWS V14.01,2013-09-08 06:48:00,
2013-09-07 23:53:00,61.7,60.5,30.02,ENE,59,2.0,3.0,96,0.00,,---,0.00,VWS V14.01,2013-09-08 06:53:00,
2013-09-07 23:58:00,61.6,60.5,30.02,ENE,59,2.0,3.0,96,0.00,,---,0.00,VWS V14.01,2013-09-08 06:58:00,